JTC650 KPDK-KBED
Flight info
| Callsign | JTC650 |
|---|---|
| Flight time | 1h 54m |
| Altitude | 45000 |
| Route | DCT EAONE DCT BEARI Q22 RBV Q419 DPK DCT MAD DCT HFD DREEM3 |
| Aircraft | GLF6/M-SDE3FGHIRWY/LB1 |
Departure
| Time | 2026-04-25 11:35 |
|---|---|
| Airport | DeKalb Peachtree Airport (KPDK) |
Arrival
| Time | 2026-04-25 13:29 |
|---|---|
| Airport | Laurence G Hanscom Field (KBED) |
| Time | Latitude | Longitude | Altitude | Speed | Heading |
|---|---|---|---|---|---|
| 2026-04-25 11:25 | 33.87501 | -84.30479 | 992 ft | 0 kts | 88° |
| 2026-04-25 11:32 | 33.87492 | -84.30456 | 992 ft | 7 kts | 116° |
| 2026-04-25 11:32 | 33.87482 | -84.30427 | 995 ft | 0 kts | 114° |
| 2026-04-25 11:32 | 33.87456 | -84.30409 | 992 ft | 11 kts | 164° |
| 2026-04-25 11:32 | 33.87343 | -84.30448 | 993 ft | 24 kts | 198° |
| 2026-04-25 11:33 | 33.87183 | -84.30520 | 993 ft | 24 kts | 200° |
| 2026-04-25 11:33 | 33.87025 | -84.30592 | 993 ft | 24 kts | 201° |
| 2026-04-25 11:33 | 33.86935 | -84.30598 | 994 ft | 7 kts | 124° |
| 2026-04-25 11:33 | 33.86909 | -84.30531 | 995 ft | 11 kts | 113° |
| 2026-04-25 11:34 | 33.86875 | -84.30418 | 995 ft | 17 kts | 98° |
| 2026-04-25 11:34 | 33.86946 | -84.30360 | 996 ft | 32 kts | 20° |
| 2026-04-25 11:34 | 33.87456 | -84.30133 | 992 ft | 124 kts | 20° |
| 2026-04-25 11:34 | 33.88440 | -84.29642 | 1377 ft | 170 kts | 30° |
| 2026-04-25 11:35 | 33.89296 | -84.28524 | 2330 ft | 200 kts | 62° |
| 2026-04-25 11:35 | 33.89904 | -84.26843 | 3241 ft | 240 kts | 65° |
| 2026-04-25 11:35 | 33.90687 | -84.24727 | 3582 ft | 303 kts | 65° |
| 2026-04-25 11:35 | 33.91500 | -84.22539 | 4923 ft | 275 kts | 70° |
| 2026-04-25 11:36 | 33.92111 | -84.20328 | 5888 ft | 281 kts | 78° |
| 2026-04-25 11:36 | 33.92414 | -84.17991 | 6977 ft | 284 kts | 84° |
| 2026-04-25 11:36 | 33.92737 | -84.15607 | 7784 ft | 292 kts | 83° |
| 2026-04-25 11:36 | 33.93014 | -84.13172 | 8628 ft | 295 kts | 85° |
| 2026-04-25 11:37 | 33.93235 | -84.10705 | 9473 ft | 299 kts | 85° |
| 2026-04-25 11:37 | 33.93468 | -84.08203 | 10256 ft | 303 kts | 85° |
| 2026-04-25 11:37 | 33.93713 | -84.05667 | 11013 ft | 307 kts | 84° |
| 2026-04-25 11:37 | 33.93956 | -84.03076 | 11578 ft | 320 kts | 84° |
| 2026-04-25 11:38 | 33.94217 | -84.00296 | 11695 ft | 348 kts | 84° |
| 2026-04-25 11:38 | 33.94503 | -83.97289 | 11823 ft | 373 kts | 84° |
| 2026-04-25 11:38 | 33.94802 | -83.94182 | 12645 ft | 374 kts | 84° |
| 2026-04-25 11:38 | 33.95102 | -83.91048 | 13354 ft | 380 kts | 84° |
| 2026-04-25 11:39 | 33.95397 | -83.87861 | 14023 ft | 385 kts | 84° |
| 2026-04-25 11:39 | 33.95675 | -83.84632 | 14678 ft | 390 kts | 84° |
| 2026-04-25 11:39 | 33.95953 | -83.81366 | 15324 ft | 394 kts | 84° |
| 2026-04-25 11:39 | 33.96234 | -83.78062 | 16005 ft | 398 kts | 84° |
| 2026-04-25 11:40 | 33.96519 | -83.74729 | 16639 ft | 403 kts | 84° |
| 2026-04-25 11:40 | 33.96826 | -83.71365 | 17252 ft | 407 kts | 82° |
| 2026-04-25 11:40 | 33.97653 | -83.68088 | 17801 ft | 411 kts | 63° |
| 2026-04-25 11:40 | 33.99200 | -83.65198 | 18397 ft | 413 kts | 52° |
| 2026-04-25 11:41 | 34.00981 | -83.62468 | 18941 ft | 415 kts | 49° |
| 2026-04-25 11:41 | 34.02826 | -83.59773 | 19496 ft | 418 kts | 50° |
| 2026-04-25 11:41 | 34.04608 | -83.56982 | 20048 ft | 422 kts | 52° |
| 2026-04-25 11:41 | 34.06368 | -83.54132 | 20579 ft | 426 kts | 52° |
| 2026-04-25 11:42 | 34.08182 | -83.51299 | 21152 ft | 427 kts | 51° |
| 2026-04-25 11:42 | 34.10020 | -83.48474 | 21727 ft | 430 kts | 51° |
| 2026-04-25 11:42 | 34.11850 | -83.45603 | 22254 ft | 433 kts | 51° |
| 2026-04-25 11:42 | 34.13681 | -83.42703 | 22746 ft | 436 kts | 51° |
| 2026-04-25 11:43 | 34.15536 | -83.39793 | 23227 ft | 439 kts | 51° |
| 2026-04-25 11:43 | 34.17408 | -83.36866 | 23673 ft | 442 kts | 51° |
| 2026-04-25 11:43 | 34.19285 | -83.33911 | 24090 ft | 444 kts | 51° |
| 2026-04-25 11:43 | 34.21167 | -83.30944 | 24499 ft | 446 kts | 51° |
| 2026-04-25 11:44 | 34.23062 | -83.27961 | 24907 ft | 449 kts | 51° |
| 2026-04-25 11:44 | 34.24968 | -83.24958 | 25312 ft | 451 kts | 51° |
| 2026-04-25 11:44 | 34.26881 | -83.21941 | 25716 ft | 454 kts | 51° |
| 2026-04-25 11:44 | 34.28803 | -83.18905 | 26127 ft | 456 kts | 51° |
| 2026-04-25 11:45 | 34.30740 | -83.15845 | 26450 ft | 460 kts | 51° |
| 2026-04-25 11:45 | 34.32683 | -83.12769 | 26944 ft | 460 kts | 51° |
| 2026-04-25 11:45 | 34.34601 | -83.09733 | 27356 ft | 462 kts | 51° |
| 2026-04-25 11:45 | 34.36558 | -83.06634 | 27722 ft | 464 kts | 51° |
| 2026-04-25 11:46 | 34.38522 | -83.03520 | 28105 ft | 467 kts | 51° |
| 2026-04-25 11:46 | 34.40501 | -83.00376 | 28473 ft | 469 kts | 51° |
| 2026-04-25 11:46 | 34.42487 | -82.97222 | 28841 ft | 471 kts | 51° |
| 2026-04-25 11:46 | 34.44478 | -82.94058 | 29196 ft | 474 kts | 51° |
| 2026-04-25 11:47 | 34.46480 | -82.90873 | 29559 ft | 476 kts | 51° |
| 2026-04-25 11:47 | 34.48489 | -82.87671 | 29906 ft | 479 kts | 51° |
| 2026-04-25 11:47 | 34.50509 | -82.84451 | 30206 ft | 481 kts | 51° |
| 2026-04-25 11:47 | 34.52537 | -82.81214 | 30493 ft | 483 kts | 51° |
| 2026-04-25 11:48 | 34.54580 | -82.77953 | 30644 ft | 489 kts | 51° |
| 2026-04-25 11:48 | 34.56641 | -82.74658 | 31011 ft | 489 kts | 51° |
| 2026-04-25 11:48 | 34.58696 | -82.71367 | 31279 ft | 491 kts | 51° |
| 2026-04-25 11:48 | 34.60767 | -82.68054 | 31528 ft | 494 kts | 51° |
| 2026-04-25 11:49 | 34.62844 | -82.64723 | 31792 ft | 496 kts | 51° |
| 2026-04-25 11:49 | 34.64929 | -82.61375 | 32046 ft | 498 kts | 51° |
| 2026-04-25 11:49 | 34.67024 | -82.58013 | 32309 ft | 501 kts | 51° |
| 2026-04-25 11:49 | 34.69101 | -82.54675 | 32559 ft | 503 kts | 51° |
| 2026-04-25 11:50 | 34.71220 | -82.51262 | 32700 ft | 508 kts | 51° |
| 2026-04-25 11:50 | 34.73352 | -82.47831 | 33195 ft | 508 kts | 51° |
| 2026-04-25 11:50 | 34.75475 | -82.44405 | 33716 ft | 507 kts | 51° |
| 2026-04-25 11:50 | 34.77600 | -82.40977 | 34130 ft | 509 kts | 51° |
| 2026-04-25 11:51 | 34.79728 | -82.37539 | 34583 ft | 507 kts | 51° |
| 2026-04-25 11:51 | 34.81839 | -82.34126 | 35192 ft | 504 kts | 51° |
| 2026-04-25 11:51 | 34.83261 | -82.31824 | 35511 ft | 503 kts | 51° |
| 2026-04-25 11:51 | 34.86041 | -82.27321 | 36133 ft | 502 kts | 51° |
| 2026-04-25 11:52 | 34.87429 | -82.25070 | 36450 ft | 501 kts | 51° |
| 2026-04-25 11:52 | 34.89519 | -82.21680 | 36932 ft | 500 kts | 51° |
| 2026-04-25 11:52 | 34.91604 | -82.18293 | 37410 ft | 499 kts | 50° |
| 2026-04-25 11:52 | 34.93681 | -82.14917 | 37884 ft | 498 kts | 50° |
| 2026-04-25 11:53 | 34.95755 | -82.11542 | 38356 ft | 497 kts | 50° |
| 2026-04-25 11:53 | 34.97820 | -82.08177 | 38786 ft | 496 kts | 50° |
| 2026-04-25 11:53 | 34.99885 | -82.04811 | 39154 ft | 495 kts | 50° |
| 2026-04-25 11:53 | 35.01951 | -82.01441 | 39441 ft | 496 kts | 50° |
| 2026-04-25 11:54 | 35.04016 | -81.98067 | 39797 ft | 495 kts | 50° |
| 2026-04-25 11:54 | 35.06070 | -81.94705 | 40155 ft | 494 kts | 50° |
| 2026-04-25 11:54 | 35.10177 | -81.87983 | 40809 ft | 493 kts | 50° |
| 2026-04-25 11:55 | 35.12222 | -81.84629 | 41125 ft | 492 kts | 50° |
| 2026-04-25 11:55 | 35.14265 | -81.81274 | 41437 ft | 492 kts | 50° |
| 2026-04-25 11:55 | 35.16304 | -81.77927 | 41759 ft | 491 kts | 50° |
| 2026-04-25 11:55 | 35.18338 | -81.74581 | 42069 ft | 490 kts | 50° |
| 2026-04-25 11:56 | 35.20371 | -81.71234 | 42364 ft | 490 kts | 50° |
| 2026-04-25 11:56 | 35.22401 | -81.67891 | 42673 ft | 489 kts | 50° |
| 2026-04-25 11:56 | 35.24427 | -81.64548 | 42906 ft | 489 kts | 50° |
| 2026-04-25 11:56 | 35.26452 | -81.61207 | 43204 ft | 488 kts | 50° |
| 2026-04-25 11:57 | 35.28468 | -81.57873 | 43490 ft | 487 kts | 50° |
| 2026-04-25 11:57 | 35.30485 | -81.54539 | 43690 ft | 487 kts | 50° |
| 2026-04-25 11:57 | 35.32497 | -81.51208 | 43945 ft | 486 kts | 50° |
| 2026-04-25 11:57 | 35.34505 | -81.47881 | 44196 ft | 486 kts | 50° |
| 2026-04-25 11:58 | 35.36510 | -81.44556 | 44423 ft | 485 kts | 50° |
| 2026-04-25 11:58 | 35.38511 | -81.41232 | 44640 ft | 485 kts | 50° |
| 2026-04-25 11:58 | 35.40513 | -81.37906 | 44808 ft | 484 kts | 50° |
| 2026-04-25 11:58 | 35.42513 | -81.34580 | 44922 ft | 486 kts | 50° |
| 2026-04-25 11:59 | 35.44533 | -81.31221 | 44942 ft | 495 kts | 50° |
| 2026-04-25 11:59 | 35.46600 | -81.27778 | 44950 ft | 506 kts | 50° |
| 2026-04-25 11:59 | 35.48703 | -81.24268 | 44956 ft | 514 kts | 50° |
| 2026-04-25 12:00 | 35.55042 | -81.13666 | 44943 ft | 512 kts | 50° |
| 2026-04-25 12:01 | 35.61327 | -81.03126 | 44921 ft | 512 kts | 50° |
| 2026-04-25 12:01 | 35.65538 | -80.96051 | 44948 ft | 513 kts | 50° |
| 2026-04-25 12:02 | 35.71847 | -80.85421 | 44942 ft | 513 kts | 51° |
| 2026-04-25 12:02 | 35.76044 | -80.78318 | 44935 ft | 513 kts | 50° |
| 2026-04-25 12:03 | 35.80254 | -80.71215 | 44919 ft | 514 kts | 50° |
| 2026-04-25 12:03 | 35.84446 | -80.64082 | 44905 ft | 514 kts | 51° |
| 2026-04-25 12:04 | 35.88644 | -80.56958 | 44881 ft | 514 kts | 50° |
| 2026-04-25 12:04 | 35.92835 | -80.49801 | 44879 ft | 515 kts | 50° |
| 2026-04-25 12:05 | 35.97031 | -80.42632 | 44887 ft | 515 kts | 50° |
| 2026-04-25 12:05 | 36.01230 | -80.35473 | 44875 ft | 515 kts | 50° |
| 2026-04-25 12:06 | 36.05415 | -80.28284 | 44890 ft | 515 kts | 51° |
| 2026-04-25 12:06 | 36.09601 | -80.21101 | 44897 ft | 515 kts | 51° |
| 2026-04-25 12:07 | 36.13820 | -80.14009 | 44896 ft | 516 kts | 52° |
| 2026-04-25 12:07 | 36.17893 | -80.06616 | 44910 ft | 515 kts | 49° |
| 2026-04-25 12:08 | 36.22160 | -79.99564 | 44913 ft | 516 kts | 51° |
| 2026-04-25 12:08 | 36.26253 | -79.92258 | 44904 ft | 516 kts | 51° |
| 2026-04-25 12:09 | 36.30474 | -79.85074 | 44915 ft | 516 kts | 51° |
| 2026-04-25 12:09 | 36.34612 | -79.77785 | 44920 ft | 517 kts | 51° |
| 2026-04-25 12:10 | 36.38802 | -79.70536 | 44915 ft | 517 kts | 51° |
| 2026-04-25 12:10 | 36.43139 | -79.63453 | 44863 ft | 514 kts | 47° |
| 2026-04-25 12:11 | 36.47707 | -79.56623 | 44865 ft | 514 kts | 47° |
| 2026-04-25 12:11 | 36.52188 | -79.49680 | 44861 ft | 515 kts | 47° |
| 2026-04-25 12:12 | 36.55994 | -79.43904 | 44857 ft | 515 kts | 47° |
| 2026-04-25 12:12 | 36.61231 | -79.35834 | 44913 ft | 516 kts | 47° |
| 2026-04-25 12:13 | 36.65750 | -79.28899 | 44909 ft | 516 kts | 47° |
| 2026-04-25 12:13 | 36.70254 | -79.21944 | 44895 ft | 516 kts | 47° |
| 2026-04-25 12:14 | 36.74760 | -79.14986 | 44888 ft | 516 kts | 47° |
| 2026-04-25 12:14 | 36.79266 | -79.08009 | 44863 ft | 516 kts | 47° |
| 2026-04-25 12:15 | 36.83767 | -79.01029 | 44854 ft | 516 kts | 47° |
| 2026-04-25 12:15 | 36.88267 | -78.94031 | 44861 ft | 516 kts | 47° |
| 2026-04-25 12:16 | 36.92762 | -78.87029 | 44856 ft | 517 kts | 47° |
| 2026-04-25 12:16 | 36.97255 | -78.80014 | 44849 ft | 517 kts | 47° |
| 2026-04-25 12:17 | 37.01744 | -78.72991 | 44860 ft | 517 kts | 47° |
| 2026-04-25 12:17 | 37.06230 | -78.65961 | 44865 ft | 517 kts | 47° |
| 2026-04-25 12:18 | 37.10711 | -78.58917 | 44859 ft | 517 kts | 47° |
| 2026-04-25 12:18 | 37.15189 | -78.51868 | 44854 ft | 517 kts | 47° |
| 2026-04-25 12:19 | 37.21874 | -78.41316 | 44853 ft | 517 kts | 47° |
| 2026-04-25 12:20 | 37.26372 | -78.34197 | 44858 ft | 517 kts | 47° |
| 2026-04-25 12:20 | 37.30810 | -78.27158 | 44893 ft | 517 kts | 47° |
| 2026-04-25 12:21 | 37.35266 | -78.20073 | 44884 ft | 517 kts | 47° |
| 2026-04-25 12:21 | 37.39725 | -78.12974 | 44885 ft | 517 kts | 48° |
| 2026-04-25 12:22 | 37.44180 | -78.05859 | 44884 ft | 517 kts | 48° |
| 2026-04-25 12:22 | 37.48629 | -77.98744 | 44882 ft | 517 kts | 48° |
| 2026-04-25 12:23 | 37.53074 | -77.91615 | 44887 ft | 517 kts | 48° |
| 2026-04-25 12:23 | 37.57516 | -77.84481 | 44894 ft | 518 kts | 48° |
| 2026-04-25 12:24 | 37.61952 | -77.77338 | 44911 ft | 517 kts | 48° |
| 2026-04-25 12:24 | 37.66379 | -77.70193 | 44914 ft | 517 kts | 48° |
| 2026-04-25 12:25 | 37.70802 | -77.63042 | 44916 ft | 516 kts | 48° |
| 2026-04-25 12:25 | 37.75218 | -77.55883 | 44922 ft | 517 kts | 48° |
| 2026-04-25 12:26 | 37.79628 | -77.48722 | 44921 ft | 516 kts | 48° |
| 2026-04-25 12:26 | 37.84034 | -77.41551 | 44920 ft | 516 kts | 48° |
| 2026-04-25 12:27 | 37.88432 | -77.34376 | 44917 ft | 516 kts | 48° |
| 2026-04-25 12:27 | 37.92824 | -77.27196 | 44915 ft | 516 kts | 48° |
| 2026-04-25 12:28 | 37.97215 | -77.20003 | 44910 ft | 516 kts | 48° |
| 2026-04-25 12:28 | 38.01601 | -77.12800 | 44912 ft | 516 kts | 49° |
| 2026-04-25 12:29 | 38.05953 | -77.05640 | 44913 ft | 515 kts | 49° |
| 2026-04-25 12:29 | 38.10322 | -76.98433 | 44913 ft | 515 kts | 49° |
| 2026-04-25 12:30 | 38.14686 | -76.91221 | 44912 ft | 515 kts | 49° |
| 2026-04-25 12:30 | 38.19053 | -76.83985 | 44925 ft | 515 kts | 49° |
| 2026-04-25 12:31 | 38.23415 | -76.76767 | 44933 ft | 513 kts | 47° |
| 2026-04-25 12:31 | 38.28513 | -76.70560 | 44934 ft | 505 kts | 36° |
| 2026-04-25 12:32 | 38.33879 | -76.64760 | 44935 ft | 507 kts | 37° |
| 2026-04-25 12:32 | 38.39261 | -76.58938 | 44940 ft | 507 kts | 37° |
| 2026-04-25 12:33 | 38.44636 | -76.53118 | 44942 ft | 507 kts | 36° |
| 2026-04-25 12:33 | 38.50044 | -76.47350 | 44943 ft | 506 kts | 36° |
| 2026-04-25 12:34 | 38.55425 | -76.41542 | 44945 ft | 506 kts | 37° |
| 2026-04-25 12:34 | 38.60814 | -76.35746 | 44953 ft | 506 kts | 37° |
| 2026-04-25 12:35 | 38.66195 | -76.29931 | 44954 ft | 506 kts | 37° |
| 2026-04-25 12:35 | 38.71572 | -76.24115 | 44962 ft | 506 kts | 37° |
| 2026-04-25 12:36 | 38.76949 | -76.18287 | 44969 ft | 507 kts | 37° |
| 2026-04-25 12:36 | 38.81418 | -76.13430 | 44973 ft | 507 kts | 37° |
| 2026-04-25 12:37 | 38.86791 | -76.07583 | 44974 ft | 506 kts | 37° |
| 2026-04-25 12:37 | 38.92151 | -76.01738 | 44968 ft | 505 kts | 37° |
| 2026-04-25 12:38 | 38.97464 | -75.95818 | 44960 ft | 507 kts | 39° |
| 2026-04-25 12:38 | 39.02623 | -75.89645 | 44972 ft | 507 kts | 39° |
| 2026-04-25 12:39 | 39.07805 | -75.83496 | 44976 ft | 507 kts | 39° |
| 2026-04-25 12:39 | 39.12974 | -75.77310 | 44988 ft | 507 kts | 39° |
| 2026-04-25 12:40 | 39.18150 | -75.71124 | 44977 ft | 508 kts | 39° |
| 2026-04-25 12:40 | 39.23319 | -75.64924 | 44979 ft | 507 kts | 39° |
| 2026-04-25 12:41 | 39.28488 | -75.58713 | 44977 ft | 508 kts | 39° |
| 2026-04-25 12:41 | 39.33652 | -75.52494 | 44991 ft | 508 kts | 39° |
| 2026-04-25 12:42 | 39.38818 | -75.46261 | 45000 ft | 509 kts | 39° |
| 2026-04-25 12:42 | 39.44039 | -75.40065 | 45003 ft | 509 kts | 37° |
| 2026-04-25 12:43 | 39.49294 | -75.34002 | 45013 ft | 510 kts | 39° |
| 2026-04-25 12:43 | 39.57170 | -75.24718 | 45015 ft | 510 kts | 38° |
| 2026-04-25 12:44 | 39.59800 | -75.21629 | 44910 ft | 511 kts | 38° |
| 2026-04-25 12:44 | 39.62407 | -75.18532 | 44639 ft | 505 kts | 38° |
| 2026-04-25 12:44 | 39.67600 | -75.12411 | 44035 ft | 506 kts | 38° |
| 2026-04-25 12:45 | 39.70204 | -75.09335 | 43756 ft | 506 kts | 38° |
| 2026-04-25 12:45 | 39.72795 | -75.06256 | 43485 ft | 505 kts | 38° |
| 2026-04-25 12:45 | 39.77986 | -75.00107 | 42938 ft | 504 kts | 37° |
| 2026-04-25 12:46 | 39.80573 | -74.97033 | 42678 ft | 504 kts | 37° |
| 2026-04-25 12:46 | 39.83164 | -74.93951 | 42410 ft | 505 kts | 37° |
| 2026-04-25 12:46 | 39.85759 | -74.90861 | 42124 ft | 506 kts | 37° |
| 2026-04-25 12:46 | 39.88356 | -74.87769 | 41751 ft | 506 kts | 37° |
| 2026-04-25 12:47 | 39.90950 | -74.84673 | 41398 ft | 505 kts | 37° |
| 2026-04-25 12:47 | 39.93542 | -74.81580 | 41049 ft | 507 kts | 37° |
| 2026-04-25 12:47 | 39.96146 | -74.78469 | 40702 ft | 508 kts | 37° |
| 2026-04-25 12:47 | 39.98746 | -74.75354 | 40307 ft | 508 kts | 36° |
| 2026-04-25 12:48 | 40.01348 | -74.72238 | 39882 ft | 508 kts | 36° |
| 2026-04-25 12:48 | 40.03952 | -74.69116 | 39456 ft | 508 kts | 36° |
| 2026-04-25 12:48 | 40.06554 | -74.65992 | 39041 ft | 508 kts | 36° |
| 2026-04-25 12:48 | 40.09155 | -74.62866 | 38598 ft | 508 kts | 36° |
| 2026-04-25 12:49 | 40.11758 | -74.59736 | 38122 ft | 509 kts | 36° |
| 2026-04-25 12:49 | 40.14349 | -74.56616 | 37643 ft | 512 kts | 36° |
| 2026-04-25 12:49 | 40.16988 | -74.53434 | 37166 ft | 512 kts | 36° |
| 2026-04-25 12:49 | 40.19609 | -74.50268 | 36701 ft | 513 kts | 36° |
| 2026-04-25 12:50 | 40.22331 | -74.47269 | 36247 ft | 511 kts | 31° |
| 2026-04-25 12:50 | 40.25098 | -74.44353 | 35947 ft | 511 kts | 32° |
| 2026-04-25 12:50 | 40.27831 | -74.41420 | 35716 ft | 519 kts | 32° |
| 2026-04-25 12:50 | 40.30605 | -74.38428 | 35504 ft | 513 kts | 32° |
| 2026-04-25 12:51 | 40.33362 | -74.35479 | 35284 ft | 512 kts | 32° |
| 2026-04-25 12:51 | 40.36121 | -74.32543 | 35051 ft | 508 kts | 32° |
| 2026-04-25 12:51 | 40.38849 | -74.29612 | 34812 ft | 507 kts | 32° |
| 2026-04-25 12:51 | 40.41580 | -74.26675 | 34578 ft | 506 kts | 32° |
| 2026-04-25 12:52 | 40.44293 | -74.23757 | 34341 ft | 503 kts | 32° |
| 2026-04-25 12:52 | 40.47007 | -74.20845 | 34116 ft | 504 kts | 32° |
| 2026-04-25 12:52 | 40.49656 | -74.17934 | 33868 ft | 505 kts | 34° |
| 2026-04-25 12:52 | 40.52140 | -74.14537 | 33585 ft | 513 kts | 42° |
| 2026-04-25 12:53 | 40.54282 | -74.10770 | 33309 ft | 517 kts | 50° |
| 2026-04-25 12:53 | 40.56074 | -74.06626 | 33045 ft | 525 kts | 57° |
| 2026-04-25 12:53 | 40.57467 | -74.02170 | 32798 ft | 528 kts | 65° |
| 2026-04-25 12:53 | 40.58548 | -73.97540 | 32576 ft | 531 kts | 67° |
| 2026-04-25 12:54 | 40.59632 | -73.92900 | 32326 ft | 528 kts | 66° |
| 2026-04-25 12:54 | 40.60712 | -73.88298 | 32086 ft | 526 kts | 66° |
| 2026-04-25 12:54 | 40.61784 | -73.83675 | 31496 ft | 529 kts | 67° |
| 2026-04-25 12:54 | 40.62843 | -73.79062 | 30816 ft | 523 kts | 67° |
| 2026-04-25 12:55 | 40.64078 | -73.74619 | 30119 ft | 512 kts | 62° |
| 2026-04-25 12:55 | 40.64941 | -73.71748 | 29631 ft | 507 kts | 62° |
| 2026-04-25 12:55 | 40.66783 | -73.66194 | 28943 ft | 490 kts | 56° |
| 2026-04-25 12:55 | 40.68366 | -73.62219 | 28270 ft | 491 kts | 56° |
| 2026-04-25 12:56 | 40.69796 | -73.58144 | 27606 ft | 488 kts | 59° |
| 2026-04-25 12:56 | 40.71071 | -73.54024 | 26948 ft | 484 kts | 61° |
| 2026-04-25 12:56 | 40.72345 | -73.49952 | 26294 ft | 476 kts | 59° |
| 2026-04-25 12:56 | 40.73751 | -73.46050 | 25675 ft | 468 kts | 56° |
| 2026-04-25 12:57 | 40.75164 | -73.42212 | 25036 ft | 464 kts | 58° |
| 2026-04-25 12:57 | 40.76469 | -73.38331 | 24415 ft | 461 kts | 59° |
| 2026-04-25 12:57 | 40.77775 | -73.34501 | 23788 ft | 452 kts | 54° |
| 2026-04-25 12:57 | 40.79432 | -73.31053 | 23109 ft | 438 kts | 46° |
| 2026-04-25 12:58 | 40.81325 | -73.28040 | 23108 ft | 419 kts | 38° |
| 2026-04-25 12:58 | 40.83451 | -73.25405 | 22786 ft | 417 kts | 32° |
| 2026-04-25 12:58 | 40.85628 | -73.22908 | 22423 ft | 412 kts | 33° |
| 2026-04-25 12:58 | 40.87769 | -73.20393 | 22069 ft | 411 kts | 33° |
| 2026-04-25 12:59 | 40.89907 | -73.17898 | 21716 ft | 408 kts | 33° |
| 2026-04-25 12:59 | 40.92031 | -73.15438 | 21441 ft | 405 kts | 33° |
| 2026-04-25 12:59 | 40.94142 | -73.12983 | 21168 ft | 404 kts | 33° |
| 2026-04-25 12:59 | 40.96246 | -73.10526 | 20889 ft | 402 kts | 33° |
| 2026-04-25 13:00 | 40.98338 | -73.08084 | 20606 ft | 401 kts | 33° |
| 2026-04-25 13:00 | 40.99718 | -73.06472 | 20440 ft | 399 kts | 33° |
| 2026-04-25 13:00 | 41.02492 | -73.03229 | 20084 ft | 396 kts | 34° |
| 2026-04-25 13:00 | 41.04550 | -73.00820 | 19831 ft | 394 kts | 34° |
| 2026-04-25 13:01 | 41.06597 | -72.98422 | 19569 ft | 392 kts | 34° |
| 2026-04-25 13:01 | 41.08635 | -72.96035 | 19305 ft | 390 kts | 34° |
| 2026-04-25 13:01 | 41.10662 | -72.93655 | 19058 ft | 388 kts | 34° |
| 2026-04-25 13:01 | 41.12662 | -72.91303 | 18789 ft | 382 kts | 33° |
| 2026-04-25 13:02 | 41.14658 | -72.88962 | 18423 ft | 382 kts | 33° |
| 2026-04-25 13:02 | 41.16631 | -72.86639 | 18109 ft | 377 kts | 34° |
| 2026-04-25 13:02 | 41.18593 | -72.84328 | 17840 ft | 376 kts | 34° |
| 2026-04-25 13:02 | 41.20553 | -72.82024 | 17578 ft | 376 kts | 34° |
| 2026-04-25 13:03 | 41.22507 | -72.79717 | 17331 ft | 375 kts | 34° |
| 2026-04-25 13:03 | 41.24456 | -72.77417 | 17078 ft | 374 kts | 34° |
| 2026-04-25 13:03 | 41.26395 | -72.75125 | 16826 ft | 373 kts | 34° |
| 2026-04-25 13:03 | 41.28333 | -72.72835 | 16575 ft | 372 kts | 34° |
| 2026-04-25 13:04 | 41.30317 | -72.70662 | 16327 ft | 366 kts | 28° |
| 2026-04-25 13:04 | 41.32487 | -72.68962 | 16076 ft | 359 kts | 20° |
| 2026-04-25 13:04 | 41.34778 | -72.67721 | 15834 ft | 352 kts | 12° |
| 2026-04-25 13:04 | 41.37106 | -72.66719 | 15602 ft | 352 kts | 12° |
| 2026-04-25 13:05 | 41.39431 | -72.65673 | 15364 ft | 353 kts | 13° |
| 2026-04-25 13:05 | 41.41757 | -72.64640 | 15128 ft | 352 kts | 13° |
| 2026-04-25 13:05 | 41.44082 | -72.63622 | 14889 ft | 351 kts | 13° |
| 2026-04-25 13:05 | 41.46397 | -72.62601 | 14654 ft | 351 kts | 13° |
| 2026-04-25 13:06 | 41.48713 | -72.61574 | 14426 ft | 350 kts | 13° |
| 2026-04-25 13:06 | 41.51028 | -72.60551 | 14184 ft | 351 kts | 13° |
| 2026-04-25 13:06 | 41.53345 | -72.59523 | 13960 ft | 351 kts | 13° |
| 2026-04-25 13:06 | 41.55651 | -72.58499 | 13698 ft | 349 kts | 13° |
| 2026-04-25 13:07 | 41.57952 | -72.57480 | 13454 ft | 347 kts | 13° |
| 2026-04-25 13:07 | 41.60243 | -72.56460 | 13222 ft | 346 kts | 13° |
| 2026-04-25 13:07 | 41.62496 | -72.55435 | 12988 ft | 347 kts | 16° |
| 2026-04-25 13:07 | 41.64681 | -72.53927 | 12744 ft | 351 kts | 27° |
| 2026-04-25 13:08 | 41.66621 | -72.51989 | 12518 ft | 354 kts | 35° |
| 2026-04-25 13:08 | 41.68532 | -72.49851 | 12288 ft | 353 kts | 34° |
| 2026-04-25 13:08 | 41.70440 | -72.47788 | 12042 ft | 352 kts | 34° |
| 2026-04-25 13:08 | 41.72305 | -72.45739 | 11816 ft | 351 kts | 35° |
| 2026-04-25 13:09 | 41.74178 | -72.43656 | 11579 ft | 350 kts | 35° |
| 2026-04-25 13:09 | 41.76045 | -72.41589 | 11339 ft | 343 kts | 35° |
| 2026-04-25 13:09 | 41.77836 | -72.39608 | 11105 ft | 326 kts | 35° |
| 2026-04-25 13:09 | 41.79546 | -72.37719 | 10882 ft | 311 kts | 35° |
| 2026-04-25 13:10 | 41.81182 | -72.35912 | 10670 ft | 298 kts | 35° |
| 2026-04-25 13:10 | 41.82760 | -72.34165 | 10472 ft | 293 kts | 35° |
| 2026-04-25 13:10 | 41.84330 | -72.32428 | 10283 ft | 292 kts | 35° |
| 2026-04-25 13:10 | 41.85897 | -72.30694 | 10098 ft | 292 kts | 35° |
| 2026-04-25 13:11 | 41.87458 | -72.28953 | 9887 ft | 292 kts | 36° |
| 2026-04-25 13:11 | 41.88997 | -72.27194 | 9684 ft | 290 kts | 36° |
| 2026-04-25 13:11 | 41.90532 | -72.25446 | 9492 ft | 287 kts | 36° |
| 2026-04-25 13:11 | 41.92022 | -72.23755 | 9287 ft | 276 kts | 36° |
| 2026-04-25 13:12 | 41.93486 | -72.22100 | 9096 ft | 275 kts | 36° |
| 2026-04-25 13:12 | 41.94945 | -72.20444 | 8914 ft | 274 kts | 36° |
| 2026-04-25 13:12 | 41.96398 | -72.18794 | 8731 ft | 273 kts | 36° |
| 2026-04-25 13:12 | 41.97355 | -72.17704 | 8620 ft | 272 kts | 37° |
| 2026-04-25 13:13 | 41.99282 | -72.15511 | 8377 ft | 270 kts | 37° |
| 2026-04-25 13:13 | 42.00714 | -72.13885 | 8197 ft | 269 kts | 37° |
| 2026-04-25 13:13 | 42.02139 | -72.12260 | 8017 ft | 268 kts | 37° |
| 2026-04-25 13:13 | 42.03563 | -72.10638 | 7832 ft | 268 kts | 37° |
| 2026-04-25 13:14 | 42.04981 | -72.09022 | 7652 ft | 267 kts | 37° |
| 2026-04-25 13:14 | 42.06377 | -72.07428 | 7471 ft | 266 kts | 37° |
| 2026-04-25 13:14 | 42.07781 | -72.05826 | 7297 ft | 264 kts | 37° |
| 2026-04-25 13:14 | 42.09180 | -72.04224 | 7114 ft | 264 kts | 38° |
| 2026-04-25 13:15 | 42.10583 | -72.02648 | 6941 ft | 262 kts | 36° |
| 2026-04-25 13:15 | 42.12007 | -72.01120 | 6752 ft | 261 kts | 37° |
| 2026-04-25 13:15 | 42.13408 | -71.99574 | 6587 ft | 260 kts | 37° |
| 2026-04-25 13:15 | 42.14814 | -71.98039 | 6401 ft | 260 kts | 37° |
| 2026-04-25 13:16 | 42.16210 | -71.96508 | 6222 ft | 259 kts | 37° |
| 2026-04-25 13:16 | 42.17609 | -71.94980 | 6044 ft | 259 kts | 37° |
| 2026-04-25 13:16 | 42.19006 | -71.93456 | 5859 ft | 258 kts | 37° |
| 2026-04-25 13:16 | 42.20399 | -71.91931 | 5680 ft | 258 kts | 37° |
| 2026-04-25 13:17 | 42.21795 | -71.90410 | 5507 ft | 258 kts | 37° |
| 2026-04-25 13:17 | 42.23177 | -71.88891 | 5333 ft | 255 kts | 37° |
| 2026-04-25 13:17 | 42.24554 | -71.87381 | 5157 ft | 255 kts | 37° |
| 2026-04-25 13:17 | 42.25933 | -71.85874 | 4992 ft | 255 kts | 37° |
| 2026-04-25 13:18 | 42.27291 | -71.84374 | 4964 ft | 251 kts | 38° |
| 2026-04-25 13:18 | 42.28624 | -71.82847 | 4964 ft | 252 kts | 38° |
| 2026-04-25 13:18 | 42.29961 | -71.81321 | 4965 ft | 251 kts | 38° |
| 2026-04-25 13:18 | 42.31305 | -71.79809 | 4970 ft | 252 kts | 38° |
| 2026-04-25 13:19 | 42.32654 | -71.78289 | 4968 ft | 252 kts | 38° |
| 2026-04-25 13:19 | 42.33993 | -71.76767 | 4975 ft | 252 kts | 38° |
| 2026-04-25 13:19 | 42.35335 | -71.75247 | 4970 ft | 251 kts | 38° |
| 2026-04-25 13:19 | 42.35771 | -71.74756 | 4970 ft | 251 kts | 38° |
| 2026-04-25 13:20 | 42.37844 | -71.71926 | 4784 ft | 252 kts | 45° |
| 2026-04-25 13:20 | 42.39026 | -71.70231 | 4638 ft | 243 kts | 44° |
| 2026-04-25 13:20 | 42.40168 | -71.68615 | 4473 ft | 234 kts | 44° |
| 2026-04-25 13:20 | 42.41265 | -71.67042 | 4316 ft | 226 kts | 45° |
| 2026-04-25 13:21 | 42.42322 | -71.65502 | 4149 ft | 222 kts | 50° |
| 2026-04-25 13:21 | 42.42914 | -71.63607 | 3987 ft | 223 kts | 75° |
| 2026-04-25 13:21 | 42.43234 | -71.61563 | 3894 ft | 222 kts | 76° |
| 2026-04-25 13:21 | 42.43577 | -71.59521 | 3783 ft | 221 kts | 75° |
| 2026-04-25 13:22 | 42.43907 | -71.57489 | 3614 ft | 220 kts | 76° |
| 2026-04-25 13:22 | 42.44228 | -71.55469 | 3464 ft | 219 kts | 76° |
| 2026-04-25 13:22 | 42.44541 | -71.53453 | 3315 ft | 219 kts | 76° |
| 2026-04-25 13:23 | 42.45165 | -71.49444 | 2990 ft | 215 kts | 76° |
| 2026-04-25 13:23 | 42.45491 | -71.47476 | 2837 ft | 212 kts | 75° |
| 2026-04-25 13:23 | 42.45858 | -71.45603 | 2739 ft | 195 kts | 72° |
| 2026-04-25 13:23 | 42.46257 | -71.43965 | 2737 ft | 173 kts | 69° |
| 2026-04-25 13:24 | 42.46647 | -71.42438 | 2626 ft | 170 kts | 69° |
| 2026-04-25 13:24 | 42.47033 | -71.40909 | 2609 ft | 172 kts | 70° |
| 2026-04-25 13:24 | 42.47267 | -71.39889 | 2556 ft | 173 kts | 72° |
| 2026-04-25 13:24 | 42.47585 | -71.38343 | 2471 ft | 169 kts | 72° |
| 2026-04-25 13:25 | 42.47938 | -71.36816 | 2356 ft | 171 kts | 70° |
| 2026-04-25 13:25 | 42.48358 | -71.35320 | 2139 ft | 166 kts | 67° |
| 2026-04-25 13:25 | 42.48760 | -71.33851 | 1924 ft | 167 kts | 68° |
| 2026-04-25 13:25 | 42.49167 | -71.32378 | 1739 ft | 166 kts | 68° |
| 2026-04-25 13:26 | 42.49547 | -71.30943 | 1726 ft | 157 kts | 69° |
| 2026-04-25 13:26 | 42.49905 | -71.29562 | 1599 ft | 155 kts | 70° |
| 2026-04-25 13:26 | 42.50237 | -71.28170 | 1417 ft | 154 kts | 71° |
| 2026-04-25 13:26 | 42.50463 | -71.26785 | 1391 ft | 149 kts | 83° |
| 2026-04-25 13:27 | 42.50363 | -71.25422 | 1351 ft | 145 kts | 103° |
| 2026-04-25 13:27 | 42.49955 | -71.24185 | 1305 ft | 144 kts | 119° |
| 2026-04-25 13:27 | 42.49342 | -71.23119 | 1288 ft | 144 kts | 135° |
| 2026-04-25 13:27 | 42.48482 | -71.22539 | 1404 ft | 134 kts | 169° |
| 2026-04-25 13:28 | 42.47620 | -71.22837 | 1321 ft | 130 kts | 218° |
| 2026-04-25 13:28 | 42.47214 | -71.23459 | 1111 ft | 138 kts | 232° |
| 2026-04-25 13:28 | 42.46702 | -71.25016 | 796 ft | 135 kts | 271° |
| 2026-04-25 13:28 | 42.46838 | -71.26266 | 479 ft | 133 kts | 281° |
| 2026-04-25 13:29 | 42.46947 | -71.27490 | 177 ft | 127 kts | 279° |
| 2026-04-25 13:29 | 42.47044 | -71.28546 | 128 ft | 88 kts | 276° |
| 2026-04-25 13:29 | 42.47093 | -71.29079 | 126 ft | 40 kts | 277° |
| 2026-04-25 13:30 | 42.47160 | -71.29759 | 140 ft | 37 kts | 277° |
| 2026-04-25 13:30 | 42.47123 | -71.30016 | 137 ft | 24 kts | 192° |
| 2026-04-25 13:30 | 42.46955 | -71.30032 | 136 ft | 25 kts | 167° |
| 2026-04-25 13:31 | 42.46614 | -71.29851 | 129 ft | 19 kts | 158° |
| 2026-04-25 13:31 | 42.46514 | -71.29796 | 123 ft | 16 kts | 159° |
| 2026-04-25 13:31 | 42.46450 | -71.29815 | 126 ft | 10 kts | 173° |
| 2026-04-25 13:31 | 42.46445 | -71.29835 | 126 ft | 0 kts | 336° |
| 2026-04-25 13:32 | 42.46423 | -71.29821 | 124 ft | 0 kts | 336° |